createdAt,value
2022-12-13T00:00:20.340Z,80.17
2022-12-13T00:03:08.205Z,79.68
2022-12-13T00:05:54.710Z,79.48
2022-12-13T00:08:41.848Z,79.47
2022-12-13T00:11:28.608Z,79.82
2022-12-13T00:14:14.469Z,79.72
2022-12-13T00:17:00.256Z,79.00
2022-12-13T00:19:48.127Z,79.17
2022-12-13T00:22:33.729Z,79.22
2022-12-13T00:25:22.105Z,78.76
2022-12-13T00:28:08.737Z,78.76
2022-12-13T00:31:27.007Z,78.55
2022-12-13T00:34:07.990Z,78.11
2022-12-13T00:36:55.104Z,78.42
2022-12-13T00:39:41.143Z,78.07
2022-12-13T00:42:26.783Z,77.55
2022-12-13T00:45:12.379Z,77.13
2022-12-13T00:47:58.133Z,77.31
2022-12-13T00:50:43.761Z,76.51
2022-12-13T00:53:29.270Z,77.87
2022-12-13T00:56:36.792Z,77.37
2022-12-13T00:59:22.202Z,77.87
2022-12-13T01:02:07.882Z,77.35
2022-12-13T01:04:53.768Z,77.44
2022-12-13T01:07:44.430Z,78.24
2022-12-13T01:10:30.443Z,78.56
2022-12-13T01:13:15.969Z,78.16
2022-12-13T01:16:05.494Z,78.03
2022-12-13T01:18:51.420Z,77.40
2022-12-13T01:21:38.306Z,77.83
2022-12-13T01:24:26.193Z,77.51
2022-12-13T01:27:12.177Z,77.25
2022-12-13T01:29:57.535Z,77.48
2022-12-13T01:32:42.907Z,77.22
2022-12-13T01:35:28.369Z,78.00
2022-12-13T01:38:15.660Z,77.66
2022-12-13T01:41:02.552Z,77.86
2022-12-13T01:44:06.618Z,77.19
2022-12-13T01:46:54.082Z,77.33
2022-12-13T01:49:40.059Z,78.04
2022-12-13T01:52:28.439Z,77.83
2022-12-13T01:55:18.546Z,77.70
2022-12-13T01:58:05.994Z,77.61
2022-12-13T02:00:52.461Z,78.43
2022-12-13T02:03:38.129Z,78.09
2022-12-13T02:06:47.543Z,77.57
2022-12-13T02:09:36.099Z,78.00
2022-12-13T02:12:21.997Z,78.52
2022-12-13T02:15:18.929Z,78.44
2022-12-13T02:18:25.719Z,78.54
2022-12-13T02:21:42.930Z,78.24
2022-12-13T02:25:03.705Z,78.55
2022-12-13T02:28:43.104Z,77.36
2022-12-13T02:31:49.093Z,77.36
2022-12-13T02:34:57.821Z,76.93
2022-12-13T02:38:29.511Z,76.39
2022-12-13T02:41:51.353Z,76.32
2022-12-13T02:44:47.178Z,76.31
2022-12-13T02:47:37.597Z,76.51
2022-12-13T02:50:26.175Z,76.33
2022-12-13T02:53:15.306Z,76.48
2022-12-13T02:56:01.120Z,76.52
2022-12-13T02:58:54.471Z,76.32
2022-12-13T03:02:31.486Z,76.95
2022-12-13T03:06:13.894Z,77.10
2022-12-13T03:09:33.900Z,77.39
2022-12-13T03:12:50.446Z,77.17
2022-12-13T03:15:56.502Z,76.84
2022-12-13T03:18:43.453Z,77.46
2022-12-13T03:21:30.007Z,77.45
2022-12-13T03:24:21.825Z,77.07
2022-12-13T03:27:07.609Z,77.40
2022-12-13T03:29:53.142Z,77.19
2022-12-13T03:32:38.709Z,77.35
2022-12-13T03:35:25.107Z,77.71
2022-12-13T03:38:21.800Z,78.03
2022-12-13T03:41:17.751Z,77.24
2022-12-13T03:44:08.650Z,77.80
2022-12-13T03:46:54.253Z,77.90
2022-12-13T03:49:39.754Z,77.63
2022-12-13T03:52:25.447Z,77.66
2022-12-13T03:55:11.274Z,77.68
2022-12-13T03:57:57.116Z,77.50
2022-12-13T04:00:42.703Z,77.50
2022-12-13T04:03:28.863Z,77.63
2022-12-13T04:06:21.626Z,77.54
2022-12-13T04:09:08.509Z,77.82
2022-12-13T04:12:15.689Z,77.45
2022-12-13T04:15:01.361Z,77.02
2022-12-13T04:17:51.216Z,76.61
2022-12-13T04:20:37.114Z,77.31
2022-12-13T04:23:23.488Z,77.42
2022-12-13T04:26:09.429Z,77.54
2022-12-13T04:28:55.110Z,77.18
2022-12-13T04:31:40.864Z,76.48
2022-12-13T04:34:28.047Z,76.61
2022-12-13T04:37:16.670Z,76.78
2022-12-13T04:40:02.406Z,77.17
2022-12-13T04:42:47.999Z,76.93
2022-12-13T04:45:39.796Z,77.19
2022-12-13T04:48:30.682Z,77.15
2022-12-13T04:51:17.265Z,77.55
2022-12-13T04:54:23.484Z,76.61
2022-12-13T04:57:11.632Z,76.94
2022-12-13T04:59:57.601Z,76.35
2022-12-13T05:02:43.664Z,76.79
2022-12-13T05:05:29.326Z,77.47
2022-12-13T05:08:14.961Z,76.92
2022-12-13T05:11:00.863Z,76.99
2022-12-13T05:13:46.384Z,77.12
2022-12-13T05:16:31.793Z,76.94
2022-12-13T05:19:17.512Z,77.38
2022-12-13T05:22:02.987Z,76.80
2022-12-13T05:24:49.055Z,76.80
2022-12-13T05:27:34.506Z,76.32
2022-12-13T05:30:20.686Z,76.04
2022-12-13T05:33:06.122Z,76.69
2022-12-13T05:35:57.699Z,76.70
2022-12-13T05:38:46.043Z,77.22
2022-12-13T05:41:35.871Z,77.34
2022-12-13T05:44:21.492Z,76.50
2022-12-13T05:47:06.940Z,76.90
2022-12-13T05:49:52.474Z,76.57
2022-12-13T05:52:38.018Z,76.69
2022-12-13T05:55:23.887Z,77.62
2022-12-13T05:58:13.274Z,77.25
2022-12-13T06:01:12.994Z,76.61
2022-12-13T06:03:58.848Z,77.34
2022-12-13T06:06:44.913Z,77.91
2022-12-13T06:09:30.951Z,78.45
2022-12-13T06:12:31.422Z,77.77
2022-12-13T06:15:22.421Z,77.82
2022-12-13T06:18:08.641Z,78.00
2022-12-13T06:21:00.276Z,78.18
2022-12-13T06:23:46.242Z,77.17
2022-12-13T06:26:31.855Z,76.87
2022-12-13T06:29:24.226Z,76.54
2022-12-13T06:32:11.592Z,77.64
2022-12-13T06:34:57.748Z,77.46
2022-12-13T06:37:43.328Z,76.18
2022-12-13T06:40:33.841Z,76.61
2022-12-13T06:43:21.322Z,76.49
2022-12-13T06:46:07.181Z,76.33
2022-12-13T06:48:55.007Z,76.51
2022-12-13T06:51:40.548Z,76.39
2022-12-13T06:54:26.162Z,76.64
2022-12-13T06:57:12.938Z,76.31
2022-12-13T06:59:58.437Z,76.41
2022-12-13T07:02:43.922Z,76.65
2022-12-13T07:05:29.663Z,76.65
2022-12-13T07:08:22.141Z,76.79
2022-12-13T07:11:13.490Z,77.07
2022-12-13T07:14:00.117Z,77.33
2022-12-13T07:16:45.769Z,76.95
2022-12-13T07:19:35.330Z,76.90
2022-12-13T07:22:21.487Z,77.35
2022-12-13T07:25:07.775Z,77.14
2022-12-13T07:28:13.285Z,76.83
2022-12-13T07:31:02.414Z,76.46
2022-12-13T07:33:47.814Z,75.99
2022-12-13T07:36:33.307Z,76.39
2022-12-13T07:39:19.220Z,75.26
2022-12-13T07:42:04.750Z,76.04
2022-12-13T07:44:49.983Z,76.43
2022-12-13T07:47:35.491Z,75.17
2022-12-13T07:50:23.973Z,76.01
2022-12-13T07:53:11.681Z,76.01
2022-12-13T07:55:57.323Z,75.74
2022-12-13T07:58:44.088Z,75.64
2022-12-13T08:01:34.554Z,75.63
2022-12-13T08:04:20.486Z,75.98
2022-12-13T08:07:09.996Z,75.42
2022-12-13T08:09:55.776Z,74.06
2022-12-13T08:12:41.309Z,74.76
2022-12-13T08:15:26.801Z,75.00
2022-12-13T08:18:12.275Z,73.99
2022-12-13T08:21:23.917Z,74.68
2022-12-13T08:24:15.689Z,74.64
2022-12-13T08:27:03.283Z,74.01
2022-12-13T08:29:49.296Z,74.09
2022-12-13T08:32:34.684Z,74.47
2022-12-13T08:35:19.989Z,73.88
2022-12-13T08:38:05.575Z,74.53
2022-12-13T08:40:51.404Z,74.27
2022-12-13T08:43:37.792Z,73.83
2022-12-13T08:46:23.212Z,74.00
2022-12-13T08:49:08.618Z,73.74
2022-12-13T08:51:54.503Z,73.85
2022-12-13T08:54:39.800Z,73.76
2022-12-13T08:57:25.376Z,73.55
2022-12-13T09:00:19.900Z,73.22
2022-12-13T09:03:09.836Z,73.47
2022-12-13T09:06:10.538Z,73.34
2022-12-13T09:08:56.163Z,72.79
2022-12-13T09:11:42.109Z,72.19
2022-12-13T09:14:33.650Z,70.36
2022-12-13T09:17:24.069Z,71.29
2022-12-13T09:20:29.766Z,69.59
2022-12-13T09:23:24.139Z,70.20
2022-12-13T09:26:16.434Z,70.07
2022-12-13T09:29:10.759Z,70.37
2022-12-13T09:31:57.936Z,71.17
2022-12-13T09:34:43.473Z,69.70
2022-12-13T09:37:32.175Z,69.32
2022-12-13T09:40:26.646Z,69.29
2022-12-13T09:43:32.031Z,68.12
2022-12-13T09:46:44.688Z,68.06
2022-12-13T09:49:36.998Z,68.56
2022-12-13T09:52:25.800Z,68.88
2022-12-13T09:55:30.264Z,69.56
2022-12-13T09:58:26.371Z,69.79
2022-12-13T10:01:12.528Z,70.90
2022-12-13T10:04:00.483Z,70.36
2022-12-13T10:06:46.190Z,70.50
2022-12-13T10:09:32.432Z,70.89
2022-12-13T10:12:18.161Z,70.92
2022-12-13T10:15:04.713Z,70.59
2022-12-13T10:17:55.241Z,70.93
2022-12-13T10:20:42.287Z,70.91
2022-12-13T10:23:42.810Z,71.44
2022-12-13T10:26:39.129Z,70.94
2022-12-13T10:29:24.561Z,71.32
2022-12-13T10:32:13.810Z,70.71
2022-12-13T10:34:59.281Z,70.32
2022-12-13T10:37:44.799Z,69.94
2022-12-13T10:40:48.827Z,70.18
2022-12-13T10:43:36.096Z,69.18
2022-12-13T10:46:24.827Z,70.17
2022-12-13T10:49:25.223Z,69.45
2022-12-13T10:52:33.674Z,69.18
2022-12-13T10:55:28.902Z,68.59
2022-12-13T10:58:19.938Z,68.51
2022-12-13T11:01:21.509Z,67.84
2022-12-13T11:04:34.699Z,68.21
2022-12-13T11:07:34.186Z,67.92
2022-12-13T11:10:29.747Z,67.94
2022-12-13T11:13:44.799Z,67.11
2022-12-13T11:16:40.619Z,67.39
2022-12-13T11:19:48.025Z,67.83
2022-12-13T11:22:38.413Z,68.44
2022-12-13T11:25:30.692Z,67.94
2022-12-13T11:28:31.845Z,67.49
2022-12-13T11:32:13.123Z,66.71
2022-12-13T11:36:00.680Z,67.07
2022-12-13T11:39:13.205Z,66.18
2022-12-13T11:42:27.892Z,66.93
2022-12-13T11:45:31.820Z,66.51
2022-12-13T11:48:20.333Z,66.44
2022-12-13T11:51:11.239Z,66.88
2022-12-13T11:54:09.272Z,66.37
2022-12-13T11:57:00.086Z,67.04
2022-12-13T12:00:02.663Z,66.30
2022-12-13T12:02:56.847Z,66.42
2022-12-13T12:05:55.760Z,65.29
2022-12-13T12:09:01.899Z,65.40
2022-12-13T12:12:22.004Z,66.27
2022-12-13T12:15:26.481Z,66.91
2022-12-13T12:18:17.197Z,67.04
2022-12-13T12:21:05.039Z,66.13
2022-12-13T12:24:26.956Z,65.33
2022-12-13T12:27:26.119Z,65.65
2022-12-13T12:30:23.026Z,65.95
2022-12-13T12:33:49.766Z,65.94
2022-12-13T12:37:02.889Z,65.41
2022-12-13T12:40:22.608Z,65.23
2022-12-13T12:43:25.891Z,65.47
2022-12-13T12:46:52.371Z,65.34
2022-12-13T12:50:16.806Z,66.23
2022-12-13T12:53:40.415Z,66.43
2022-12-13T12:56:57.190Z,66.74
2022-12-13T13:00:24.298Z,66.41
2022-12-13T13:03:26.519Z,66.69
2022-12-13T13:06:40.669Z,66.72
2022-12-13T13:09:27.344Z,66.94
2022-12-13T13:12:28.907Z,67.75
2022-12-13T13:15:33.430Z,67.54
2022-12-13T13:18:51.920Z,68.03
2022-12-13T13:22:02.473Z,67.55
2022-12-13T13:25:26.067Z,67.50
2022-12-13T13:28:17.896Z,68.47
2022-12-13T13:31:09.275Z,68.18
2022-12-13T13:33:54.827Z,68.48
2022-12-13T13:36:41.115Z,68.33
2022-12-13T13:39:29.460Z,68.21
2022-12-13T13:42:15.061Z,68.97
2022-12-13T13:45:23.619Z,68.61
2022-12-13T13:49:09.656Z,67.99
2022-12-13T13:52:25.325Z,68.86
2022-12-13T13:55:45.571Z,68.40
2022-12-13T13:59:13.397Z,68.41
2022-12-13T14:02:41.839Z,69.24
2022-12-13T14:06:02.686Z,68.71
2022-12-13T14:09:23.579Z,70.17
2022-12-13T14:13:13.565Z,70.15
2022-12-13T14:16:06.455Z,68.45
2022-12-13T14:19:06.717Z,69.16
2022-12-13T14:22:10.160Z,69.08
2022-12-13T14:25:27.685Z,69.10
2022-12-13T14:28:13.564Z,69.58
2022-12-13T14:30:47.789Z,70.61
2022-12-13T14:33:26.600Z,69.48
2022-12-13T14:35:56.329Z,69.57
2022-12-13T14:38:27.037Z,70.02
2022-12-13T14:41:00.037Z,69.76
2022-12-13T14:43:33.130Z,69.88
2022-12-13T14:46:07.240Z,70.00
2022-12-13T14:48:53.774Z,70.01
2022-12-13T14:51:38.310Z,69.62
2022-12-13T14:54:25.925Z,70.73
2022-12-13T14:57:04.959Z,70.60
2022-12-13T14:59:33.596Z,71.25
2022-12-13T15:02:04.892Z,70.83
2022-12-13T15:04:36.054Z,70.42
2022-12-13T15:07:07.612Z,70.25
2022-12-13T15:09:44.567Z,70.19
2022-12-13T15:12:24.682Z,70.01
2022-12-13T15:15:03.053Z,70.21
2022-12-13T15:17:40.860Z,70.65
2022-12-13T15:20:32.050Z,70.31
2022-12-13T15:23:19.433Z,70.70
2022-12-13T15:25:59.140Z,70.41
2022-12-13T15:28:34.583Z,70.91
2022-12-13T15:31:04.583Z,70.67
2022-12-13T15:33:36.546Z,71.19
2022-12-13T15:36:23.629Z,70.84
2022-12-13T15:38:56.483Z,70.51
2022-12-13T15:41:33.899Z,70.92
2022-12-13T15:44:08.095Z,70.73
2022-12-13T15:46:38.235Z,71.66
2022-12-13T15:49:23.571Z,71.71
2022-12-13T15:51:57.474Z,70.57
2022-12-13T15:54:24.899Z,71.22
2022-12-13T15:57:15.820Z,70.00
2022-12-13T15:59:44.555Z,70.43
2022-12-13T16:02:23.519Z,70.45
2022-12-13T16:04:51.517Z,70.01
2022-12-13T16:07:40.297Z,69.50
2022-12-13T16:10:08.959Z,70.24
2022-12-13T16:12:47.879Z,68.54
2022-12-13T16:15:49.404Z,68.91
2022-12-13T16:18:32.124Z,69.15
2022-12-13T16:20:59.933Z,69.46
2022-12-13T16:23:27.688Z,69.06
2022-12-13T16:25:55.337Z,68.85
2022-12-13T16:28:25.920Z,69.40
2022-12-13T16:30:53.267Z,68.99
2022-12-13T16:33:30.529Z,69.13
2022-12-13T16:36:00.080Z,68.80
2022-12-13T16:38:30.165Z,69.24
2022-12-13T16:41:00.841Z,69.75
2022-12-13T16:43:52.835Z,68.56
2022-12-13T16:47:14.732Z,68.26
2022-12-13T16:49:21.167Z,69.18
2022-12-13T16:51:55.044Z,68.48
2022-12-13T16:54:26.326Z,69.20
2022-12-13T16:56:54.580Z,69.75
2022-12-13T16:59:27.055Z,68.97
2022-12-13T17:01:54.747Z,69.15
2022-12-13T17:04:24.653Z,70.01
2022-12-13T17:06:55.081Z,70.05
2022-12-13T17:09:24.344Z,68.84
2022-12-13T17:11:51.562Z,69.44
2022-12-13T17:14:20.826Z,69.17
2022-12-13T17:16:48.001Z,69.29
2022-12-13T17:19:15.804Z,68.63
2022-12-13T17:21:43.147Z,69.28
2022-12-13T17:24:10.282Z,69.15
2022-12-13T17:26:37.290Z,69.54
2022-12-13T17:29:04.740Z,69.49
2022-12-13T17:31:35.691Z,68.93
2022-12-13T17:34:04.519Z,68.67
2022-12-13T17:36:34.123Z,68.37
2022-12-13T17:39:03.973Z,68.53
2022-12-13T17:41:31.067Z,68.52
2022-12-13T17:44:01.291Z,68.12
2022-12-13T17:46:28.472Z,68.74
2022-12-13T17:48:55.487Z,68.52
2022-12-13T17:51:22.681Z,68.29
2022-12-13T17:53:49.685Z,68.84
2022-12-13T17:56:17.732Z,69.05
2022-12-13T17:58:45.039Z,67.80
2022-12-13T18:01:26.631Z,67.57
2022-12-13T18:03:57.809Z,68.60
2022-12-13T18:06:26.243Z,67.74
2022-12-13T18:08:53.603Z,67.75
2022-12-13T18:11:33.010Z,67.81
2022-12-13T18:14:02.246Z,68.85
2022-12-13T18:16:36.214Z,68.67
2022-12-13T18:19:12.293Z,68.59
2022-12-13T18:21:43.641Z,68.78
2022-12-13T18:24:12.355Z,68.95
2022-12-13T18:26:39.479Z,68.98
2022-12-13T18:29:06.718Z,68.53
2022-12-13T18:31:33.851Z,68.32
2022-12-13T18:34:00.992Z,68.24
2022-12-13T18:36:28.329Z,68.36
2022-12-13T18:38:55.642Z,67.71
2022-12-13T18:41:28.227Z,67.20
2022-12-13T18:44:08.172Z,68.30
2022-12-13T18:46:38.213Z,67.96
2022-12-13T18:49:06.746Z,68.67
2022-12-13T18:51:34.254Z,68.41
2022-12-13T18:54:01.378Z,68.56
2022-12-13T18:56:28.481Z,69.00
2022-12-13T18:58:59.535Z,69.02
2022-12-13T19:01:28.134Z,69.05
2022-12-13T19:03:55.417Z,68.45
2022-12-13T19:06:27.620Z,68.30
2022-12-13T19:08:56.610Z,67.09
2022-12-13T19:11:26.346Z,67.75
2022-12-13T19:13:53.982Z,68.09
2022-12-13T19:16:26.166Z,68.84
2022-12-13T19:18:57.422Z,68.36
2022-12-13T19:21:24.546Z,68.89
2022-12-13T19:23:57.304Z,68.24
2022-12-13T19:26:25.423Z,68.76
2022-12-13T19:28:52.437Z,69.55
2022-12-13T19:31:25.564Z,68.95
2022-12-13T19:34:02.361Z,69.20
2022-12-13T19:36:32.186Z,68.72
2022-12-13T19:38:59.381Z,69.31
2022-12-13T19:41:26.635Z,69.92
2022-12-13T19:43:55.897Z,69.79
2022-12-13T19:46:23.040Z,69.29
2022-12-13T19:48:51.064Z,69.77
2022-12-13T19:51:18.478Z,68.68
2022-12-13T19:53:45.503Z,69.22
2022-12-13T19:56:17.814Z,68.94
2022-12-13T19:58:47.115Z,70.09
2022-12-13T20:01:17.453Z,70.48
2022-12-13T20:03:46.481Z,70.78
2022-12-13T20:06:18.458Z,71.96
2022-12-13T20:08:46.482Z,71.57
2022-12-13T20:11:21.202Z,72.35
2022-12-13T20:13:52.719Z,72.57
2022-12-13T20:16:24.451Z,73.75
2022-12-13T20:18:59.914Z,74.05
2022-12-13T20:21:28.710Z,74.02
2022-12-13T20:23:56.529Z,74.77
2022-12-13T20:26:29.666Z,74.55
2022-12-13T20:28:56.991Z,74.48
2022-12-13T20:31:31.154Z,74.53
2022-12-13T20:34:02.333Z,74.55
2022-12-13T20:36:32.907Z,75.52
2022-12-13T20:39:02.197Z,75.12
2022-12-13T20:41:34.610Z,76.11
2022-12-13T20:44:04.957Z,76.25
2022-12-13T20:46:32.670Z,76.72
2022-12-13T20:49:06.324Z,77.32
2022-12-13T20:51:34.937Z,76.95
2022-12-13T20:54:05.464Z,76.58
2022-12-13T20:56:35.921Z,77.33
2022-12-13T20:59:08.749Z,76.95
2022-12-13T21:01:41.010Z,77.28
2022-12-13T21:04:11.175Z,76.71
2022-12-13T21:06:42.869Z,76.24
2022-12-13T21:09:11.563Z,76.27
2022-12-13T21:11:44.089Z,76.15
2022-12-13T21:14:22.251Z,77.12
2022-12-13T21:17:00.235Z,76.95
2022-12-13T21:19:39.450Z,77.59
2022-12-13T21:22:07.213Z,77.63
2022-12-13T21:24:34.395Z,77.39
2022-12-13T21:27:01.542Z,76.28
2022-12-13T21:29:28.685Z,76.65
2022-12-13T21:31:56.185Z,76.03
2022-12-13T21:34:23.711Z,76.48
2022-12-13T21:36:52.755Z,76.41
2022-12-13T21:39:23.348Z,76.97
2022-12-13T21:41:51.594Z,77.13
2022-12-13T21:44:19.538Z,77.05
2022-12-13T21:47:22.300Z,77.38
2022-12-13T21:49:35.538Z,76.83
2022-12-13T21:52:02.681Z,76.59
2022-12-13T21:54:29.720Z,77.02
2022-12-13T21:57:15.165Z,77.49
2022-12-13T21:59:42.225Z,77.63
2022-12-13T22:02:18.702Z,76.77
2022-12-13T22:04:51.016Z,76.56
2022-12-13T22:07:32.544Z,76.51
2022-12-13T22:10:01.573Z,77.23
2022-12-13T22:12:38.488Z,77.02
2022-12-13T22:15:15.990Z,76.93
2022-12-13T22:17:43.436Z,78.14
2022-12-13T22:20:14.286Z,76.99
2022-12-13T22:22:44.237Z,77.33
2022-12-13T22:25:11.500Z,77.28
2022-12-13T22:27:38.687Z,77.70
2022-12-13T22:30:06.804Z,77.01
2022-12-13T22:32:34.036Z,77.37
2022-12-13T22:35:04.850Z,76.83
2022-12-13T22:37:33.331Z,76.38
2022-12-13T22:40:08.378Z,76.57
2022-12-13T22:42:35.796Z,76.55
2022-12-13T22:45:03.019Z,76.21
2022-12-13T22:47:32.698Z,76.52
2022-12-13T22:49:59.802Z,77.06
2022-12-13T22:52:32.008Z,77.14
2022-12-13T22:55:00.881Z,76.49
2022-12-13T22:57:27.957Z,77.25
2022-12-13T22:59:55.053Z,76.42
2022-12-13T23:02:24.595Z,75.60
2022-12-13T23:04:51.785Z,76.02
2022-12-13T23:07:18.892Z,75.93
2022-12-13T23:09:46.178Z,75.36
2022-12-13T23:12:31.618Z,75.53
2022-12-13T23:14:58.749Z,75.19
2022-12-13T23:17:25.870Z,75.35
2022-12-13T23:19:53.636Z,75.94
2022-12-13T23:22:25.664Z,75.40
2022-12-13T23:24:56.282Z,75.52
2022-12-13T23:27:24.452Z,75.93
2022-12-13T23:29:51.640Z,75.66
2022-12-13T23:32:19.006Z,75.31
2022-12-13T23:34:48.571Z,74.82
2022-12-13T23:37:15.807Z,75.07
2022-12-13T23:39:42.985Z,74.16
2022-12-13T23:42:11.198Z,74.72
2022-12-13T23:44:38.315Z,74.55
2022-12-13T23:47:05.396Z,74.07
2022-12-13T23:49:34.664Z,74.20
2022-12-13T23:52:01.654Z,74.75
2022-12-13T23:54:31.108Z,75.06
2022-12-13T23:56:58.286Z,75.47
2022-12-13T23:59:27.257Z,76.11
